Sequel — WDG4437 — position and weather

sailwx.info

Track history (hours):
 
Tides and Currents Weather Stations Pressure Air Temp Water Temp Dewpoint Dewpoint Depression Visibility Wind Speed Wind Dir Waves Ship Positions

Sequel

Owner: Big Dog Fish Company, BELLINGHAM, WA. More information available from US FCC via Universal Licensing System and Coast Guard Vessel Documentation Center.

Last reported at 2017-Dec-18 07:42 UTC. Time now 2017-Dec-18 12:41 UTC.
Position N 33°58' W 119°54'.

Length 19 m.

Type: Fishing. MMSI: 367536560.

Date/timePositionNaut miles runAvg speedWind from/ knotsBaromVisibWave heightAir tempDewpointWater temp
2017-Dec-18 07:42N 33°58' W 119°54'2 8.4
2017-Dec-18 07:30N 33°57' W 119°53'18 2.2
2017-Dec-17 23:22N 33°60' W 119°32'3 8.5
2017-Dec-17 23:00N 34°03' W 119°29'5 8.7
2017-Dec-17 22:27N 34°06' W 119°26'4 8.6
2017-Dec-17 21:57N 34°09' W 119°22'5 8.8
2017-Dec-17 21:24N 34°13' W 119°18'2 3.6
2017-Dec-17 20:43N 34°15' W 119°16'0 0.0
2017-Dec-17 20:28N 34°15' W 119°16'0 0.0
2017-Dec-17 19:55N 34°15' W 119°16'0 0.0
2017-Dec-17 19:25N 34°15' W 119°16'0 0.0
2017-Dec-17 18:55N 34°15' W 119°16'0 0.0
2017-Dec-17 18:28N 34°15' W 119°16'0 0.0
2017-Dec-17 17:19N 34°15' W 119°16'0 0.0
2017-Dec-17 11:22N 34°15' W 119°16'0 0.0
2017-Dec-17 10:49N 34°15' W 119°16'0 0.0
2017-Dec-17 09:01N 34°15' W 119°16'0 0.0
2017-Dec-17 08:43N 34°15' W 119°16'0 0.0
2017-Dec-17 05:13N 34°15' W 119°16'0 0.0
2017-Dec-17 04:52N 34°15' W 119°16'0 0.0
2017-Dec-17 04:25N 34°15' W 119°16'0 0.0
2017-Dec-17 03:58N 34°15' W 119°16'0 0.0
2017-Dec-17 03:25N 34°15' W 119°16'0 0.0
2017-Dec-17 02:43N 34°15' W 119°16'0 0.0
2017-Dec-17 02:07N 34°15' W 119°16'0 0.0
2017-Dec-16 20:10N 34°15' W 119°16'0 0.0
2017-Dec-16 19:55N 34°15' W 119°16'0 0.0
2017-Dec-16 19:25N 34°15' W 119°16'0 0.0
2017-Dec-16 18:43N 34°15' W 119°16'0 0.0
2017-Dec-16 18:25N 34°15' W 119°16'0 0.0
2017-Dec-16 17:58N 34°15' W 119°16'0 0.0
2017-Dec-16 17:25N 34°15' W 119°16'0 0.0
2017-Dec-16 16:55N 34°15' W 119°16'0 0.0
2017-Dec-16 16:25N 34°15' W 119°16'0 0.0
2017-Dec-16 15:49N 34°15' W 119°16'0 0.0
2017-Dec-16 14:31N 34°15' W 119°16'0 0.0
2017-Dec-16 14:25N 34°15' W 119°16'0 0.0
2017-Dec-16 13:55N 34°15' W 119°16'0 0.0
2017-Dec-16 13:25N 34°15' W 119°16'0 0.0
2017-Dec-16 12:07N 34°15' W 119°16'0 0.0
2017-Dec-16 11:55N 34°15' W 119°16'0 0.0
2017-Dec-16 11:19N 34°15' W 119°16'0 0.0
2017-Dec-16 10:58N 34°15' W 119°16'0 0.0
2017-Dec-16 10:13N 34°15' W 119°16'0 0.0
2017-Dec-16 09:55N 34°15' W 119°16'0 0.0
2017-Dec-16 09:28N 34°15' W 119°16'0 0.0
2017-Dec-16 08:55N 34°15' W 119°16'0 0.0
2017-Dec-16 08:28N 34°15' W 119°16'0 0.0
2017-Dec-16 07:55N 34°15' W 119°16'0 0.0
2017-Dec-16 07:07N 34°15' W 119°16'0 0.0
2017-Dec-16 06:58N 34°15' W 119°16'0 0.0
2017-Dec-16 06:02N 34°15' W 119°16'0 0.0
2017-Dec-16 05:49N 34°15' W 119°16'0 0.0
2017-Dec-15 18:46N 34°15' W 119°16'2 5.3
2017-Dec-15 18:29N 34°15' W 119°18'2 3.3
2017-Dec-15 18:00N 34°14' W 119°16'0 0.0
2017-Dec-15 17:24N 34°14' W 119°16'0 0.1
2017-Dec-15 16:54N 34°14' W 119°16'0 0.1
2017-Dec-15 16:30N 34°14' W 119°16'1 1.7
2017-Dec-15 16:00N 34°15' W 119°17'2 3.2
2017-Dec-15 15:28N 34°15' W 119°19'4 8.6
2017-Dec-15 14:59N 34°13' W 119°24'5 8.5
2017-Dec-15 14:22N 34°12' W 119°30'4 8.1
2017-Dec-15 13:52N 34°10' W 119°34'3 8.2
2017-Dec-15 13:29N 34°09' W 119°38'4 8.4
2017-Dec-15 13:00N 34°08' W 119°43'5 8.2
2017-Dec-15 12:23N 34°07' W 119°48'5 8.3
2017-Dec-15 11:45N 34°05' W 119°54'3 7.0
2017-Dec-15 11:23N 34°03' W 119°56'2 3.0
2017-Dec-15 10:39N 34°01' W 119°54'0 0.2
2017-Dec-15 10:30N 34°01' W 119°54'0 0.0
2017-Dec-15 09:41N 34°01' W 119°54'1 7.0
2017-Dec-15 09:30N 34°00' W 119°55'2 1.0
2017-Dec-15 07:06N 33°59' W 119°58'3 7.8
2017-Dec-15 06:42N 33°58' W 119°55'36 2.8
2017-Dec-14 18:01N 34°14' W 119°16'0 0.0
2017-Dec-14 18:00N 34°14' W 119°16'2 3.8
2017-Dec-14 17:29N 34°13' W 119°18'4 8.9
2017-Dec-14 17:00N 34°10' W 119°21'4 8.3
2017-Dec-14 16:29N 34°07' W 119°24'5 8.7
2017-Dec-14 15:55N 34°03' W 119°28'  
2017-Dec-11 23:28N 33°60' W 119°32'4 9.2
2017-Dec-11 22:59N 34°03' W 119°28'5 9.2
2017-Dec-11 22:24N 34°07' W 119°24'4 8.9
2017-Dec-11 21:59N 34°10' W 119°21'6 9.2
2017-Dec-11 21:22N 34°15' W 119°16'0 1.2
2017-Dec-11 20:58N 34°15' W 119°16'0 0.0
2017-Dec-11 20:28N 34°15' W 119°16'0 0.0
2017-Dec-11 19:40N 34°15' W 119°16'0 0.0
2017-Dec-11 19:16N 34°15' W 119°16'0 0.0
2017-Dec-11 18:55N 34°15' W 119°16'0 0.2
2017-Dec-11 18:12N 34°14' W 119°16'0 0.0
2017-Dec-11 17:14N 34°14' W 119°16'0 0.1
2017-Dec-11 16:52N 34°14' W 119°16'0 0.2
2017-Dec-11 16:30N 34°15' W 119°16'3 6.4
2017-Dec-11 16:00N 34°12' W 119°18'4 8.8
2017-Dec-11 15:30N 34°09' W 119°22'5 8.5
2017-Dec-11 14:58N 34°06' W 119°26'4 8.6
2017-Dec-11 14:30N 34°03' W 119°29'3 0.2
2017-Dec-10 20:30N 33°60' W 119°31'5 8.5
2017-Dec-10 19:53N 34°04' W 119°28'4 8.8
2017-Dec-10 19:25N 34°07' W 119°25'5 8.5
2017-Dec-10 18:53N 34°10' W 119°21'5 8.5
2017-Dec-10 18:20N 34°14' W 119°17'1 0.5
2017-Dec-10 15:56N 34°15' W 119°16'0 0.0
2017-Dec-10 14:47N 34°15' W 119°16'0 0.0
2017-Dec-10 14:20N 34°15' W 119°16'0 0.0
2017-Dec-10 08:36N 34°15' W 119°16'0 0.0
2017-Dec-10 08:20N 34°15' W 119°16'0 0.0
2017-Dec-10 07:57N 34°15' W 119°16'0 0.0
2017-Dec-10 07:27N 34°15' W 119°16'0 0.0
2017-Dec-10 06:51N 34°15' W 119°16'0 0.0
2017-Dec-10 06:30N 34°15' W 119°16'0 0.0
2017-Dec-10 05:48N 34°15' W 119°16'0 0.0
2017-Dec-10 05:27N 34°15' W 119°16'0 0.0
2017-Dec-10 04:15N 34°15' W 119°16'0 0.0
2017-Dec-09 22:33N 34°15' W 119°16'0 0.0
2017-Dec-09 22:09N 34°15' W 119°16'0 0.0
2017-Dec-09 20:57N 34°15' W 119°16'0 0.0
2017-Dec-09 20:21N 34°15' W 119°16'0 0.0
2017-Dec-09 19:41N 34°15' W 119°16'0 0.0
2017-Dec-09 19:26N 34°15' W 119°16'0 0.0
2017-Dec-09 18:56N 34°15' W 119°16'0 0.0
2017-Dec-09 18:26N 34°15' W 119°16'0 0.0
2017-Dec-09 17:56N 34°15' W 119°16'0 0.0
2017-Dec-09 17:08N 34°15' W 119°16'0 0.0
2017-Dec-09 16:53N 34°15' W 119°16'0 0.0
2017-Dec-09 16:14N 34°15' W 119°16'0 0.0
2017-Dec-09 15:50N 34°15' W 119°16'0 0.0
2017-Dec-09 13:44N 34°15' W 119°16'0 0.0
2017-Dec-09 13:14N 34°15' W 119°16'0 0.0
2017-Dec-09 12:56N 34°15' W 119°16'0 0.0
2017-Dec-09 12:26N 34°15' W 119°16'0 0.0
2017-Dec-09 11:50N 34°15' W 119°16'0 0.0
2017-Dec-09 11:26N 34°15' W 119°16'0 0.0
2017-Dec-09 10:56N 34°15' W 119°16'0 0.0
2017-Dec-09 10:26N 34°15' W 119°16'0 0.0
2017-Dec-09 03:35N 34°15' W 119°16'0 0.0
2017-Dec-09 03:17N 34°15' W 119°16'0 0.0
2017-Dec-09 02:08N 34°15' W 119°16'0 0.0
2017-Dec-09 01:41N 34°15' W 119°16'0 0.0
2017-Dec-09 01:02N 34°15' W 119°16'0 0.0
2017-Dec-08 23:59N 34°15' W 119°16'0 0.0
2017-Dec-08 23:17N 34°15' W 119°16'0 0.0
2017-Dec-08 22:44N 34°15' W 119°16'0 0.0
2017-Dec-08 22:29N 34°15' W 119°16'0 0.0
2017-Dec-08 21:53N 34°15' W 119°16'0 0.0
2017-Dec-08 21:29N 34°15' W 119°16'0 0.0
2017-Dec-08 20:59N 34°15' W 119°16'0 0.0
2017-Dec-08 18:47N 34°15' W 119°16'0 0.0
2017-Dec-08 18:14N 34°15' W 119°16'0 0.0
2017-Dec-08 09:29N 34°15' W 119°16'  
Track history (hours):
 
Tides and Currents Weather Stations Pressure Air Temp Water Temp Dewpoint Dewpoint Depression Visibility Wind Speed Wind Dir Waves Ship Positions

Sequel

Owner: Big Dog Fish Company, BELLINGHAM, WA. More information available from US FCC via Universal Licensing System and Coast Guard Vessel Documentation Center.

Last reported at 2017-Dec-18 07:42 UTC. Time now 2017-Dec-18 12:41 UTC.
Position N 33°58' W 119°54'.

Length 19 m.

Type: Fishing. MMSI: 367536560.

Date/timePositionNaut miles runAvg speedWind from/ knotsBaromVisibWave heightAir tempDewpointWater temp
2017-Dec-18 07:42N 33°58' W 119°54'2 8.4
2017-Dec-18 07:30N 33°57' W 119°53'18 2.2
2017-Dec-17 23:22N 33°60' W 119°32'3 8.5
2017-Dec-17 23:00N 34°03' W 119°29'5 8.7
2017-Dec-17 22:27N 34°06' W 119°26'4 8.6
2017-Dec-17 21:57N 34°09' W 119°22'5 8.8
2017-Dec-17 21:24N 34°13' W 119°18'2 3.6
2017-Dec-17 20:43N 34°15' W 119°16'0 0.0
2017-Dec-17 20:28N 34°15' W 119°16'0 0.0
2017-Dec-17 19:55N 34°15' W 119°16'0 0.0
2017-Dec-17 19:25N 34°15' W 119°16'0 0.0
2017-Dec-17 18:55N 34°15' W 119°16'0 0.0
2017-Dec-17 18:28N 34°15' W 119°16'0 0.0
2017-Dec-17 17:19N 34°15' W 119°16'0 0.0
2017-Dec-17 11:22N 34°15' W 119°16'0 0.0
2017-Dec-17 10:49N 34°15' W 119°16'0 0.0
2017-Dec-17 09:01N 34°15' W 119°16'0 0.0
2017-Dec-17 08:43N 34°15' W 119°16'0 0.0
2017-Dec-17 05:13N 34°15' W 119°16'0 0.0
2017-Dec-17 04:52N 34°15' W 119°16'0 0.0
2017-Dec-17 04:25N 34°15' W 119°16'0 0.0
2017-Dec-17 03:58N 34°15' W 119°16'0 0.0
2017-Dec-17 03:25N 34°15' W 119°16'0 0.0
2017-Dec-17 02:43N 34°15' W 119°16'0 0.0
2017-Dec-17 02:07N 34°15' W 119°16'0 0.0
2017-Dec-16 20:10N 34°15' W 119°16'0 0.0
2017-Dec-16 19:55N 34°15' W 119°16'0 0.0
2017-Dec-16 19:25N 34°15' W 119°16'0 0.0
2017-Dec-16 18:43N 34°15' W 119°16'0 0.0
2017-Dec-16 18:25N 34°15' W 119°16'0 0.0
2017-Dec-16 17:58N 34°15' W 119°16'0 0.0
2017-Dec-16 17:25N 34°15' W 119°16'0 0.0
2017-Dec-16 16:55N 34°15' W 119°16'0 0.0
2017-Dec-16 16:25N 34°15' W 119°16'0 0.0
2017-Dec-16 15:49N 34°15' W 119°16'0 0.0
2017-Dec-16 14:31N 34°15' W 119°16'0 0.0
2017-Dec-16 14:25N 34°15' W 119°16'0 0.0
2017-Dec-16 13:55N 34°15' W 119°16'0 0.0
2017-Dec-16 13:25N 34°15' W 119°16'0 0.0
2017-Dec-16 12:07N 34°15' W 119°16'0 0.0
2017-Dec-16 11:55N 34°15' W 119°16'0 0.0
2017-Dec-16 11:19N 34°15' W 119°16'0 0.0
2017-Dec-16 10:58N 34°15' W 119°16'0 0.0
2017-Dec-16 10:13N 34°15' W 119°16'0 0.0
2017-Dec-16 09:55N 34°15' W 119°16'0 0.0
2017-Dec-16 09:28N 34°15' W 119°16'0 0.0
2017-Dec-16 08:55N 34°15' W 119°16'0 0.0
2017-Dec-16 08:28N 34°15' W 119°16'0 0.0
2017-Dec-16 07:55N 34°15' W 119°16'0 0.0
2017-Dec-16 07:07N 34°15' W 119°16'0 0.0
2017-Dec-16 06:58N 34°15' W 119°16'0 0.0
2017-Dec-16 06:02N 34°15' W 119°16'0 0.0
2017-Dec-16 05:49N 34°15' W 119°16'0 0.0
2017-Dec-15 18:46N 34°15' W 119°16'2 5.3
2017-Dec-15 18:29N 34°15' W 119°18'2 3.3
2017-Dec-15 18:00N 34°14' W 119°16'0 0.0
2017-Dec-15 17:24N 34°14' W 119°16'0 0.1
2017-Dec-15 16:54N 34°14' W 119°16'0 0.1
2017-Dec-15 16:30N 34°14' W 119°16'1 1.7
2017-Dec-15 16:00N 34°15' W 119°17'2 3.2
2017-Dec-15 15:28N 34°15' W 119°19'4 8.6
2017-Dec-15 14:59N 34°13' W 119°24'5 8.5
2017-Dec-15 14:22N 34°12' W 119°30'4 8.1
2017-Dec-15 13:52N 34°10' W 119°34'3 8.2
2017-Dec-15 13:29N 34°09' W 119°38'4 8.4
2017-Dec-15 13:00N 34°08' W 119°43'5 8.2
2017-Dec-15 12:23N 34°07' W 119°48'5 8.3
2017-Dec-15 11:45N 34°05' W 119°54'3 7.0
2017-Dec-15 11:23N 34°03' W 119°56'2 3.0
2017-Dec-15 10:39N 34°01' W 119°54'0 0.2
2017-Dec-15 10:30N 34°01' W 119°54'0 0.0
2017-Dec-15 09:41N 34°01' W 119°54'1 7.0
2017-Dec-15 09:30N 34°00' W 119°55'2 1.0
2017-Dec-15 07:06N 33°59' W 119°58'3 7.8
2017-Dec-15 06:42N 33°58' W 119°55'36 2.8
2017-Dec-14 18:01N 34°14' W 119°16'0 0.0
2017-Dec-14 18:00N 34°14' W 119°16'2 3.8
2017-Dec-14 17:29N 34°13' W 119°18'4 8.9
2017-Dec-14 17:00N 34°10' W 119°21'4 8.3
2017-Dec-14 16:29N 34°07' W 119°24'5 8.7
2017-Dec-14 15:55N 34°03' W 119°28'  
2017-Dec-11 23:28N 33°60' W 119°32'4 9.2
2017-Dec-11 22:59N 34°03' W 119°28'5 9.2
2017-Dec-11 22:24N 34°07' W 119°24'4 8.9
2017-Dec-11 21:59N 34°10' W 119°21'6 9.2
2017-Dec-11 21:22N 34°15' W 119°16'0 1.2
2017-Dec-11 20:58N 34°15' W 119°16'0 0.0
2017-Dec-11 20:28N 34°15' W 119°16'0 0.0
2017-Dec-11 19:40N 34°15' W 119°16'0 0.0
2017-Dec-11 19:16N 34°15' W 119°16'0 0.0
2017-Dec-11 18:55N 34°15' W 119°16'0 0.2
2017-Dec-11 18:12N 34°14' W 119°16'0 0.0
2017-Dec-11 17:14N 34°14' W 119°16'0 0.1
2017-Dec-11 16:52N 34°14' W 119°16'0 0.2
2017-Dec-11 16:30N 34°15' W 119°16'3 6.4
2017-Dec-11 16:00N 34°12' W 119°18'4 8.8
2017-Dec-11 15:30N 34°09' W 119°22'5 8.5
2017-Dec-11 14:58N 34°06' W 119°26'4 8.6
2017-Dec-11 14:30N 34°03' W 119°29'3 0.2
2017-Dec-10 20:30N 33°60' W 119°31'5 8.5
2017-Dec-10 19:53N 34°04' W 119°28'4 8.8
2017-Dec-10 19:25N 34°07' W 119°25'5 8.5
2017-Dec-10 18:53N 34°10' W 119°21'5 8.5
2017-Dec-10 18:20N 34°14' W 119°17'1 0.5
2017-Dec-10 15:56N 34°15' W 119°16'0 0.0
2017-Dec-10 14:47N 34°15' W 119°16'0 0.0
2017-Dec-10 14:20N 34°15' W 119°16'0 0.0
2017-Dec-10 08:36N 34°15' W 119°16'0 0.0
2017-Dec-10 08:20N 34°15' W 119°16'0 0.0
2017-Dec-10 07:57N 34°15' W 119°16'0 0.0
2017-Dec-10 07:27N 34°15' W 119°16'0 0.0
2017-Dec-10 06:51N 34°15' W 119°16'0 0.0
2017-Dec-10 06:30N 34°15' W 119°16'0 0.0
2017-Dec-10 05:48N 34°15' W 119°16'0 0.0
2017-Dec-10 05:27N 34°15' W 119°16'0 0.0
2017-Dec-10 04:15N 34°15' W 119°16'0 0.0
2017-Dec-09 22:33N 34°15' W 119°16'0 0.0
2017-Dec-09 22:09N 34°15' W 119°16'0 0.0
2017-Dec-09 20:57N 34°15' W 119°16'0 0.0
2017-Dec-09 20:21N 34°15' W 119°16'0 0.0
2017-Dec-09 19:41N 34°15' W 119°16'0 0.0
2017-Dec-09 19:26N 34°15' W 119°16'0 0.0
2017-Dec-09 18:56N 34°15' W 119°16'0 0.0
2017-Dec-09 18:26N 34°15' W 119°16'0 0.0
2017-Dec-09 17:56N 34°15' W 119°16'0 0.0
2017-Dec-09 17:08N 34°15' W 119°16'0 0.0
2017-Dec-09 16:53N 34°15' W 119°16'0 0.0
2017-Dec-09 16:14N 34°15' W 119°16'0 0.0
2017-Dec-09 15:50N 34°15' W 119°16'0 0.0
2017-Dec-09 13:44N 34°15' W 119°16'0 0.0
2017-Dec-09 13:14N 34°15' W 119°16'0 0.0
2017-Dec-09 12:56N 34°15' W 119°16'0 0.0
2017-Dec-09 12:26N 34°15' W 119°16'0 0.0
2017-Dec-09 11:50N 34°15' W 119°16'0 0.0
2017-Dec-09 11:26N 34°15' W 119°16'0 0.0
2017-Dec-09 10:56N 34°15' W 119°16'0 0.0
2017-Dec-09 10:26N 34°15' W 119°16'0 0.0
2017-Dec-09 03:35N 34°15' W 119°16'0 0.0
2017-Dec-09 03:17N 34°15' W 119°16'0 0.0
2017-Dec-09 02:08N 34°15' W 119°16'0 0.0
2017-Dec-09 01:41N 34°15' W 119°16'0 0.0
2017-Dec-09 01:02N 34°15' W 119°16'0 0.0
2017-Dec-08 23:59N 34°15' W 119°16'0 0.0
2017-Dec-08 23:17N 34°15' W 119°16'0 0.0
2017-Dec-08 22:44N 34°15' W 119°16'0 0.0
2017-Dec-08 22:29N 34°15' W 119°16'0 0.0
2017-Dec-08 21:53N 34°15' W 119°16'0 0.0
2017-Dec-08 21:29N 34°15' W 119°16'0 0.0
2017-Dec-08 20:59N 34°15' W 119°16'0 0.0
2017-Dec-08 18:47N 34°15' W 119°16'0 0.0
2017-Dec-08 18:14N 34°15' W 119°16'0 0.0
2017-Dec-08 09:29N 34°15' W 119°16'  

Dump ship's entire track history